Time;durP1;ratioP1;P1;durP2;ratioP2;P2;SDS_P1;SDS_P2;PMS_P1;PMS_P2;Temp;Humidity;BMP_temperature;BMP_pressure;BME280_temperature;BME280_humidity;BME280_pressure;Samples;Min_cycle;Max_cycle;Signal;HPM_P1;HPM_P2
2021/05/22 00:00:33;;;;;;;10.18;4.70;;;;;;;12.65;62.56;99440.44;4943368;29;20032;-58
2021/05/22 00:02:59;;;;;;;11.95;4.50;;;;;;;12.64;62.85;99430.94;4935945;29;20024;-58
2021/05/22 00:05:24;;;;;;;10.32;4.50;;;;;;;12.48;63.51;99425.41;4937066;29;20075;-59
2021/05/22 00:07:50;;;;;;;11.23;4.47;;;;;;;12.54;62.73;99428.66;4935398;29;20148;-58
2021/05/22 00:10:16;;;;;;;11.57;4.68;;;;;;;12.49;62.92;99427.94;4943282;29;20054;-58
2021/05/22 00:12:44;;;;;;;10.45;4.18;;;;;;;12.14;63.46;99387.56;4943038;29;20198;-58
2021/05/22 00:15:12;;;;;;;9.65;4.03;;;;;;;12.10;63.61;99384.25;4937236;29;20035;-57
2021/05/22 00:17:38;;;;;;;7.60;4.05;;;;;;;12.42;63.58;99439.44;4935323;29;20036;-58
2021/05/22 00:20:06;;;;;;;9.57;4.68;;;;;;;12.08;63.21;99380.81;4942773;29;20046;-58
2021/05/22 00:22:32;;;;;;;10.85;4.70;;;;;;;12.43;63.49;99448.94;4937651;29;20047;-57
2021/05/22 00:24:57;;;;;;;9.60;4.55;;;;;;;12.36;63.18;99444.84;4938363;29;20099;-58
2021/05/22 00:27:24;;;;;;;8.25;3.72;;;;;;;12.31;64.06;99447.56;4943482;29;20358;-58
2021/05/22 00:29:50;;;;;;;15.98;4.78;;;;;;;12.28;64.22;99442.47;4943224;29;20044;-58
2021/05/22 00:32:16;;;;;;;13.60;4.53;;;;;;;12.31;63.79;99450.16;4945953;29;20035;-60
2021/05/22 00:34:41;;;;;;;12.85;4.40;;;;;;;12.31;63.78;99441.53;4946997;29;20054;-59
2021/05/22 00:37:07;;;;;;;12.27;4.10;;;;;;;12.26;63.57;99441.69;4947253;29;20044;-59
2021/05/22 00:39:33;;;;;;;9.75;4.32;;;;;;;12.19;64.10;99450.59;4943891;29;20043;-59
2021/05/22 00:42:03;;;;;;;12.75;4.65;;;;;;;12.06;63.72;99453.56;4941556;29;20035;-59
2021/05/22 00:44:33;;;;;;;11.73;4.90;;;;;;;12.09;62.93;99452.63;4938693;29;20060;-58
2021/05/22 00:47:02;;;;;;;8.13;4.28;;;;;;;12.09;63.73;99450.03;4947160;29;20035;-58
2021/05/22 00:49:28;;;;;;;8.23;4.50;;;;;;;12.11;64.44;99450.81;4946927;29;20090;-57
2021/05/22 00:51:55;;;;;;;8.10;4.45;;;;;;;12.07;63.81;99449.19;4945752;29;20101;-58
2021/05/22 00:54:21;;;;;;;9.88;4.65;;;;;;;11.90;65.14;99454.91;4946815;29;20078;-58
2021/05/22 00:56:48;;;;;;;9.52;4.80;;;;;;;11.94;65.17;99453.09;4946980;29;20321;-57
2021/05/22 00:59:18;;;;;;;10.07;4.30;;;;;;;11.86;64.79;99450.72;4946806;29;20054;-58
2021/05/22 01:01:45;;;;;;;13.98;4.63;;;;;;;11.89;65.01;99459.25;4946551;29;20047;-59
2021/05/22 01:04:18;;;;;;;9.07;4.80;;;;;;;11.85;64.95;99446.41;4961574;28;20287;-58
2021/05/22 01:06:44;;;;;;;9.52;4.70;;;;;;;11.88;65.08;99465.31;4961514;28;20205;-59
2021/05/22 01:09:15;;;;;;;7.00;4.57;;;;;;;11.34;65.64;99398.63;4946579;29;20046;-58
2021/05/22 01:11:55;;;;;;;12.40;4.43;;;;;;;11.67;66.57;99464.25;4946496;29;20042;-57
2021/05/22 01:14:26;;;;;;;9.73;5.07;;;;;;;11.31;66.25;99404.75;4946374;29;20046;-57
2021/05/22 01:16:55;;;;;;;8.70;4.53;;;;;;;11.58;66.38;99465.31;4946422;29;20038;-57
2021/05/22 01:19:32;;;;;;;11.30;4.65;;;;;;;11.50;66.90;99451.75;4946419;29;20050;-57
2021/05/22 01:21:58;;;;;;;12.65;4.22;;;;;;;11.62;66.71;99465.28;4946520;29;20027;-58
2021/05/22 01:24:25;;;;;;;10.23;4.88;;;;;;;11.53;67.20;99461.19;4946457;29;20371;-57
2021/05/22 01:26:51;;;;;;;11.43;4.50;;;;;;;11.50;67.11;99469.91;4946140;29;20036;-57
2021/05/22 01:29:17;;;;;;;9.30;4.28;;;;;;;11.55;66.93;99469.78;4946308;29;20032;-57
2021/05/22 01:31:44;;;;;;;9.13;4.25;;;;;;;11.51;67.17;99471.59;4946024;29;20031;-57
2021/05/22 01:34:09;;;;;;;10.77;4.15;;;;;;;11.47;67.28;99482.09;4946265;29;20036;-58
2021/05/22 01:36:41;;;;;;;10.65;5.43;;;;;;;11.39;67.69;99484.94;4945801;29;20040;-58
2021/05/22 01:39:07;;;;;;;9.32;4.55;;;;;;;11.34;67.78;99487.66;4945624;29;20253;-57
2021/05/22 01:41:33;;;;;;;7.95;4.18;;;;;;;11.29;67.89;99488.69;4945702;29;20032;-57
2021/05/22 01:44:02;;;;;;;10.50;4.20;;;;;;;10.89;68.22;99428.41;4944936;29;20478;-57
2021/05/22 01:46:31;;;;;;;8.55;4.47;;;;;;;11.32;67.66;99478.22;4946280;29;20035;-57
2021/05/22 01:48:58;;;;;;;9.30;4.78;;;;;;;11.11;68.13;99449.38;4946254;29;20113;-57
2021/05/22 01:51:25;;;;;;;10.23;4.55;;;;;;;11.42;67.38;99490.03;4945778;29;20223;-57
2021/05/22 01:53:52;;;;;;;7.35;4.13;;;;;;;11.43;68.02;99488.25;4945799;29;20027;-57
2021/05/22 01:56:19;;;;;;;8.43;4.80;;;;;;;11.47;67.81;99489.88;4945955;29;20038;-57
2021/05/22 01:58:46;;;;;;;6.50;4.55;;;;;;;11.39;68.81;99492.69;4945672;29;20106;-57
2021/05/22 02:01:12;;;;;;;10.88;4.07;;;;;;;11.41;68.23;99488.31;4945574;29;20054;-58
2021/05/22 02:03:42;;;;;;;7.93;4.68;;;;;;;11.47;68.37;99490.75;4945661;29;20217;-58
2021/05/22 02:06:28;;;;;;;7.53;4.30;;;;;;;11.52;68.25;99501.81;4945679;29;20095;-57
2021/05/22 02:08:57;;;;;;;9.15;4.57;;;;;;;11.59;68.24;99507.69;4945481;29;20038;-58
2021/05/22 02:11:26;;;;;;;10.98;4.53;;;;;;;11.15;68.50;99443.22;4945316;29;20028;-58
2021/05/22 02:13:54;;;;;;;8.57;4.30;;;;;;;11.11;68.24;99444.19;4944344;29;20035;-59
2021/05/22 02:16:25;;;;;;;9.25;4.93;;;;;;;11.42;69.02;99515.94;4945438;29;20041;-59
2021/05/22 02:18:52;;;;;;;9.27;4.55;;;;;;;11.51;68.84;99514.84;4937217;29;20054;-57
2021/05/22 02:21:18;;;;;;;9.00;4.88;;;;;;;11.49;68.92;99507.09;4945294;29;20035;-58
2021/05/22 02:23:46;;;;;;;18.05;5.82;;;;;;;11.58;68.94;99509.41;4945250;29;20032;-58
2021/05/22 02:26:13;;;;;;;21.55;5.43;;;;;;;11.69;68.61;99522.09;4945000;29;20256;-57
2021/05/22 02:28:40;;;;;;;10.48;6.15;;;;;;;11.70;67.96;99497.00;4944842;29;20075;-57
2021/05/22 02:31:07;;;;;;;13.18;5.28;;;;;;;11.95;67.69;99522.28;4945250;29;20265;-58
2021/05/22 02:33:34;;;;;;;10.32;5.32;;;;;;;12.05;67.50;99531.47;4944938;29;20031;-58
2021/05/22 02:36:00;;;;;;;10.02;4.93;;;;;;;12.12;67.34;99527.81;4945050;29;20114;-58
2021/05/22 02:38:31;;;;;;;8.57;4.43;;;;;;;12.25;66.56;99539.50;4945125;29;20361;-57
2021/05/22 02:41:00;;;;;;;7.47;4.30;;;;;;;12.24;66.34;99537.81;4938131;29;20198;-58
2021/05/22 02:43:28;;;;;;;9.77;5.32;;;;;;;11.76;67.12;99473.50;4944952;29;20055;-57
2021/05/22 02:45:56;;;;;;;7.43;4.90;;;;;;;12.32;66.07;99547.97;4936204;29;20052;-57
2021/05/22 02:48:23;;;;;;;7.72;5.05;;;;;;;12.37;66.80;99537.41;4944753;29;20066;-57
2021/05/22 02:50:50;;;;;;;8.18;5.03;;;;;;;12.53;66.19;99553.41;4943595;29;20324;-57
2021/05/22 02:53:21;;;;;;;12.65;4.72;;;;;;;12.53;66.17;99548.19;4944797;28;20321;-57
2021/05/22 02:55:53;;;;;;;15.13;5.00;;;;;;;12.61;66.05;99546.19;4944340;29;20043;-57
2021/05/22 02:58:19;;;;;;;8.85;5.18;;;;;;;12.63;65.46;99541.81;4944869;29;20032;-57
2021/05/22 03:00:45;;;;;;;6.55;4.30;;;;;;;12.75;64.26;99544.03;4944604;29;20031;-57
2021/05/22 03:03:11;;;;;;;10.88;4.00;;;;;;;12.84;62.65;99542.84;4944570;29;20031;-57
2021/05/22 03:05:38;;;;;;;14.55;4.22;;;;;;;12.98;63.33;99551.94;4944440;29;20051;-57
2021/05/22 03:08:05;;;;;;;8.05;4.00;;;;;;;12.95;60.08;99538.16;4944456;29;20074;-57
2021/05/22 03:10:31;;;;;;;11.77;4.65;;;;;;;13.14;58.95;99550.53;4944280;29;20102;-58
2021/05/22 03:12:57;;;;;;;8.70;4.22;;;;;;;13.06;57.74;99539.53;4944675;29;20032;-59
2021/05/22 03:15:22;;;;;;;14.32;4.25;;;;;;;13.17;56.96;99560.81;4944329;29;20301;-58
2021/05/22 03:17:48;;;;;;;15.48;4.45;;;;;;;13.19;56.56;99547.75;4944484;29;20043;-60
2021/05/22 03:20:14;;;;;;;11.65;4.72;;;;;;;13.28;56.48;99556.09;4944400;29;20052;-59
2021/05/22 03:22:41;;;;;;;10.18;4.18;;;;;;;13.44;57.22;99555.59;4944205;29;20047;-58
2021/05/22 03:25:08;;;;;;;14.68;4.72;;;;;;;13.58;57.54;99574.16;4944260;29;20110;-59
2021/05/22 03:27:36;;;;;;;12.55;4.47;;;;;;;13.33;56.38;99508.28;4944081;29;20198;-59
2021/05/22 03:30:04;;;;;;;11.38;3.80;;;;;;;13.75;57.18;99562.28;4943915;29;20102;-58
2021/05/22 03:32:30;;;;;;;15.43;4.38;;;;;;;13.84;58.18;99558.50;4944016;29;20039;-58
2021/05/22 03:34:55;;;;;;;9.60;4.60;;;;;;;13.92;57.15;99559.06;4943610;29;20032;-58
2021/05/22 03:37:21;;;;;;;13.55;4.22;;;;;;;13.99;55.52;99565.72;4943816;29;20216;-58
2021/05/22 03:39:47;;;;;;;11.07;3.63;;;;;;;14.08;55.51;99574.94;4944019;29;20031;-58
2021/05/22 03:42:13;;;;;;;12.30;4.05;;;;;;;14.15;55.30;99566.00;4943897;29;20028;-58
2021/05/22 03:44:38;;;;;;;10.23;4.05;;;;;;;14.13;53.24;99565.22;4943542;29;20227;-58
2021/05/22 03:47:04;;;;;;;11.30;3.72;;;;;;;14.18;54.32;99558.09;4943800;29;20034;-58
2021/05/22 03:49:30;;;;;;;8.60;3.13;;;;;;;14.46;54.70;99565.66;4942328;29;20032;-59
2021/05/22 03:51:56;;;;;;;9.82;3.53;;;;;;;14.54;53.88;99561.94;4943827;29;20047;-59
2021/05/22 03:54:22;;;;;;;11.10;3.40;;;;;;;14.64;53.88;99571.09;4943936;29;20074;-58
2021/05/22 03:56:47;;;;;;;8.18;3.15;;;;;;;14.63;53.12;99578.06;4944073;29;20094;-59
2021/05/22 03:59:13;;;;;;;7.53;2.30;;;;;;;14.70;50.24;99580.44;4943734;29;20032;-59
2021/05/22 04:01:39;;;;;;;7.40;2.60;;;;;;;14.76;50.52;99580.19;4943792;29;20040;-59
2021/05/22 04:04:05;;;;;;;7.60;2.83;;;;;;;14.86;51.51;99576.28;4937750;29;20245;-58
2021/05/22 04:06:31;;;;;;;4.18;2.38;;;;;;;15.02;51.95;99574.75;4944700;29;20035;-59
2021/05/22 04:08:56;;;;;;;8.52;3.28;;;;;;;15.09;51.14;99574.47;4947587;29;20216;-60
2021/05/22 04:11:22;;;;;;;6.38;2.30;;;;;;;15.11;51.11;99577.88;4947582;29;20031;-58
2021/05/22 04:13:48;;;;;;;3.30;2.30;;;;;;;15.10;50.65;99581.41;4947604;29;20098;-58
2021/05/22 04:16:14;;;;;;;7.22;2.72;;;;;;;15.23;50.22;99589.56;4947568;29;20042;-58
2021/05/22 04:18:39;;;;;;;6.85;2.70;;;;;;;15.26;48.66;99579.81;4947277;29;20420;-59
2021/05/22 04:21:05;;;;;;;7.38;2.33;;;;;;;15.38;48.23;99593.25;4947690;29;20035;-57
2021/05/22 04:23:31;;;;;;;6.95;2.50;;;;;;;15.39;47.52;99592.34;4947285;29;20071;-57
2021/05/22 04:25:58;;;;;;;4.22;2.13;;;;;;;15.51;47.88;99597.91;4947641;29;20095;-58
2021/05/22 04:28:25;;;;;;;11.63;2.58;;;;;;;15.63;48.06;99596.50;4947409;29;20324;-56
2021/05/22 04:30:50;;;;;;;4.75;2.15;;;;;;;15.66;47.19;99591.19;4947065;29;20042;-57
2021/05/22 04:33:16;;;;;;;7.18;2.10;;;;;;;15.48;45.35;99599.81;4946154;29;20313;-57
2021/05/22 04:35:42;;;;;;;7.70;2.20;;;;;;;15.64;47.24;99598.22;4946972;29;20031;-57
2021/05/22 04:38:08;;;;;;;4.43;2.10;;;;;;;15.65;46.64;99593.84;4947221;29;20027;-57
2021/05/22 04:40:34;;;;;;;7.93;2.17;;;;;;;15.79;46.68;99596.72;4947040;29;20038;-57
2021/05/22 04:43:00;;;;;;;4.18;2.05;;;;;;;15.96;46.29;99597.72;4947025;29;20039;-58
2021/05/22 04:45:26;;;;;;;5.93;2.22;;;;;;;16.11;47.32;99596.19;4946998;29;20078;-58
2021/05/22 04:47:52;;;;;;;7.43;2.35;;;;;;;16.55;45.52;99593.28;4938018;29;20106;-56
2021/05/22 04:50:17;;;;;;;4.47;1.80;;;;;;;16.84;42.04;99596.25;4944926;29;20074;-58
2021/05/22 04:52:44;;;;;;;4.35;2.00;;;;;;;17.23;43.46;99597.84;4946642;29;20032;-58
2021/05/22 04:55:10;;;;;;;4.38;2.10;;;;;;;17.34;43.88;99584.19;4947116;29;20031;-58
2021/05/22 04:57:36;;;;;;;3.72;1.92;;;;;;;17.64;44.04;99597.47;4946867;29;20036;-59
2021/05/22 05:00:07;;;;;;;4.18;1.70;;;;;;;17.39;43.74;99592.69;4946732;29;20032;-59
2021/05/22 05:02:33;;;;;;;2.90;2.00;;;;;;;17.51;43.40;99591.19;4946341;29;20249;-59
2021/05/22 05:04:59;;;;;;;7.22;2.10;;;;;;;17.48;41.55;99596.59;4946882;28;20035;-59
2021/05/22 05:07:25;;;;;;;6.68;1.98;;;;;;;17.42;41.93;99592.50;4946828;29;20057;-60
2021/05/22 05:09:51;;;;;;;5.15;2.35;;;;;;;17.35;42.07;99605.06;4946439;29;20213;-59
2021/05/22 05:12:17;;;;;;;5.47;2.17;;;;;;;17.90;42.56;99593.53;4946778;29;20027;-59
2021/05/22 05:14:43;;;;;;;4.45;2.03;;;;;;;18.05;40.43;99591.84;4946275;29;20035;-58
2021/05/22 05:17:09;;;;;;;4.70;1.95;;;;;;;18.32;40.06;99598.31;4946415;29;20051;-58
2021/05/22 05:19:34;;;;;;;2.92;1.80;;;;;;;18.67;40.30;99601.59;4946327;29;20047;-59
2021/05/22 05:22:00;;;;;;;2.70;1.15;;;;;;;18.67;38.54;99609.47;4946211;29;20235;-58
2021/05/22 05:24:27;;;;;;;4.80;1.52;;;;;;;18.67;37.81;99611.22;4946228;29;20087;-58
2021/05/22 05:26:52;;;;;;;4.18;1.30;;;;;;;18.46;36.45;99621.97;4933406;29;20031;-58
2021/05/22 05:29:18;;;;;;;3.47;1.33;;;;;;;18.35;37.17;99616.47;4946240;29;20062;-58
2021/05/22 05:31:44;;;;;;;4.55;1.30;;;;;;;18.43;37.84;99624.78;4946085;28;20296;-58
2021/05/22 05:34:10;;;;;;;3.78;1.55;;;;;;;18.57;38.67;99627.47;4945782;29;20035;-58
2021/05/22 05:36:36;;;;;;;3.50;1.30;;;;;;;19.09;35.91;99631.56;4946049;29;20204;-58
2021/05/22 05:39:03;;;;;;;3.60;1.23;;;;;;;19.15;35.78;99604.13;4946099;29;20095;-59
2021/05/22 05:41:29;;;;;;;2.15;1.02;;;;;;;18.99;34.87;99626.97;4946007;29;20032;-59
2021/05/22 05:43:55;;;;;;;2.60;1.13;;;;;;;18.76;35.56;99639.56;4946151;29;20032;-57
2021/05/22 05:46:21;;;;;;;2.53;1.20;;;;;;;18.82;36.23;99633.97;4944763;29;20023;-58
2021/05/22 05:48:47;;;;;;;3.83;1.15;;;;;;;18.44;35.08;99632.56;4945581;29;20035;-58
2021/05/22 05:51:13;;;;;;;2.10;1.15;;;;;;;18.51;36.67;99638.28;4946012;29;20031;-59
2021/05/22 05:53:39;;;;;;;3.92;1.20;;;;;;;18.65;35.93;99636.69;4945842;29;20032;-59
2021/05/22 05:56:05;;;;;;;1.80;1.00;;;;;;;18.58;35.89;99650.16;4945739;29;20044;-58
2021/05/22 05:58:32;;;;;;;2.58;1.20;;;;;;;18.32;36.46;99640.25;4945459;29;20095;-58
2021/05/22 06:00:58;;;;;;;5.00;0.90;;;;;;;18.52;37.37;99645.25;4945762;29;20038;-57
2021/05/22 06:03:26;;;;;;;4.28;1.30;;;;;;;18.54;37.01;99638.16;4945622;29;20035;-56
2021/05/22 06:05:52;;;;;;;3.10;1.10;;;;;;;18.56;36.89;99643.31;4945654;29;20032;-57
2021/05/22 06:08:19;;;;;;;2.90;1.50;;;;;;;18.49;37.62;99642.78;4944618;29;20055;-57
2021/05/22 06:10:46;;;;;;;7.95;1.58;;;;;;;18.64;37.34;99641.13;4944074;28;20197;-58
2021/05/22 06:13:23;;;;;;;4.63;1.60;;;;;;;18.31;36.87;99594.81;4945389;29;20055;-59
2021/05/22 06:15:51;;;;;;;5.30;1.38;;;;;;;18.59;38.09;99641.34;4945213;29;20043;-57
2021/05/22 06:18:17;;;;;;;6.00;1.30;;;;;;;18.69;37.25;99654.81;4945326;29;20099;-58
2021/05/22 06:20:42;;;;;;;8.38;1.48;;;;;;;18.59;37.37;99666.75;4944864;29;20047;-58
2021/05/22 06:23:08;;;;;;;3.90;1.50;;;;;;;18.64;37.72;99654.22;4945268;29;20283;-60
2021/05/22 06:25:34;;;;;;;2.30;0.90;;;;;;;18.58;37.58;99651.94;4945081;29;20040;-58
2021/05/22 06:27:59;;;;;;;2.95;1.40;;;;;;;18.50;38.04;99669.84;4945027;29;20131;-60
2021/05/22 06:30:26;;;;;;;3.90;1.55;;;;;;;18.56;37.64;99664.28;4944367;29;20202;-60
2021/05/22 06:32:52;;;;;;;2.67;1.23;;;;;;;18.59;38.47;99657.09;4937151;29;20299;-60
2021/05/22 06:35:18;;;;;;;5.95;1.50;;;;;;;18.83;38.55;99664.53;4945113;29;20040;-61
2021/05/22 06:37:43;;;;;;;2.28;1.25;;;;;;;19.10;37.03;99659.53;4944909;29;20082;-58
2021/05/22 06:40:12;;;;;;;2.35;1.25;;;;;;;19.06;38.13;99662.41;4943736;29;20032;-59
2021/05/22 06:42:38;;;;;;;5.32;1.70;;;;;;;18.96;38.29;99657.69;4944714;29;20031;-59
2021/05/22 06:45:09;;;;;;;3.63;1.52;;;;;;;19.12;37.62;99660.28;4944735;29;20051;-59
2021/05/22 06:47:35;;;;;;;3.40;1.55;;;;;;;18.93;37.44;99667.53;4944802;29;20051;-59
2021/05/22 06:50:01;;;;;;;4.25;1.90;;;;;;;19.06;38.46;99660.63;4944443;29;20086;-59
2021/05/22 06:52:27;;;;;;;4.05;1.40;;;;;;;19.22;37.94;99665.00;4944853;29;20031;-59
2021/05/22 06:54:53;;;;;;;2.17;1.50;;;;;;;19.16;38.15;99660.13;4944622;29;20340;-58
2021/05/22 06:57:19;;;;;;;3.88;1.30;;;;;;;19.07;39.38;99649.22;4943623;29;20024;-58
2021/05/22 06:59:46;;;;;;;1.20;1.10;;;;;;;19.34;39.10;99650.31;4944177;29;20028;-58
2021/05/22 07:02:12;;;;;;;2.65;1.40;;;;;;;19.31;37.82;99646.06;4944313;29;20082;-58
2021/05/22 07:04:38;;;;;;;2.60;1.30;;;;;;;19.26;37.87;99648.13;4944455;29;20252;-57
2021/05/22 07:07:05;;;;;;;7.22;1.85;;;;;;;19.20;39.27;99651.13;4944329;29;20027;-58
2021/05/22 07:09:31;;;;;;;6.10;1.38;;;;;;;19.31;38.03;99651.31;4943921;28;20031;-58
2021/05/22 07:11:57;;;;;;;3.67;1.50;;;;;;;19.41;39.10;99647.25;4944344;29;20028;-58
2021/05/22 07:14:22;;;;;;;6.65;1.73;;;;;;;19.40;39.54;99649.97;4942994;29;20205;-58
2021/05/22 07:16:48;;;;;;;2.65;1.60;;;;;;;19.56;38.79;99648.09;4944111;29;20059;-58
2021/05/22 07:19:14;;;;;;;3.33;1.40;;;;;;;19.50;38.49;99648.47;4944014;29;20311;-57
2021/05/22 07:21:39;;;;;;;3.05;1.52;;;;;;;19.32;39.42;99639.91;4958868;29;20327;-57
2021/05/22 07:24:05;;;;;;;2.75;1.70;;;;;;;19.13;39.05;99648.84;4944246;29;20175;-58
2021/05/22 07:26:31;;;;;;;3.90;1.83;;;;;;;19.31;38.57;99656.56;4943854;29;20024;-58
2021/05/22 07:28:57;;;;;;;2.63;1.55;;;;;;;19.36;37.62;99641.41;4943987;29;20035;-58
2021/05/22 07:31:23;;;;;;;4.88;2.67;;;;;;;19.25;39.56;99647.31;4943926;29;20317;-57
2021/05/22 07:33:51;;;;;;;2.78;1.73;;;;;;;19.42;38.31;99655.97;4943579;29;20046;-59
2021/05/22 07:36:18;;;;;;;3.42;1.42;;;;;;;19.53;39.61;99660.59;4943854;29;20031;-59
2021/05/22 07:38:44;;;;;;;2.35;1.52;;;;;;;19.41;37.85;99657.75;4943846;29;20035;-58
2021/05/22 07:41:10;;;;;;;6.93;1.60;;;;;;;19.42;38.37;99656.78;4943761;29;20040;-59
2021/05/22 07:43:36;;;;;;;3.00;1.38;;;;;;;19.41;37.95;99638.50;4943961;29;20030;-57
2021/05/22 07:46:02;;;;;;;3.72;1.48;;;;;;;19.62;37.80;99644.28;4943737;29;20027;-57
2021/05/22 07:48:29;;;;;;;2.58;2.33;;;;;;;19.48;37.71;99645.09;4943832;29;20047;-58
2021/05/22 07:50:56;;;;;;;2.05;1.20;;;;;;;19.19;37.25;99652.91;4943603;29;20027;-58
2021/05/22 07:53:22;;;;;;;4.10;1.70;;;;;;;19.18;37.42;99619.69;4943856;29;20032;-58
2021/05/22 07:55:49;;;;;;;2.85;1.73;;;;;;;19.56;37.54;99648.09;4943882;29;20096;-58
2021/05/22 07:58:17;;;;;;;3.92;1.67;;;;;;;19.51;37.79;99647.56;4943694;29;20038;-58
2021/05/22 08:00:47;;;;;;;3.80;1.50;;;;;;;19.43;37.42;99649.78;4943468;29;20071;-60
2021/05/22 08:03:13;;;;;;;3.35;1.33;;;;;;;19.57;38.53;99654.22;4943723;29;20023;-59
2021/05/22 08:05:39;;;;;;;4.40;1.73;;;;;;;19.37;38.44;99645.75;4943811;29;20042;-58
2021/05/22 08:08:05;;;;;;;2.58;1.50;;;;;;;19.54;38.66;99649.13;4943683;29;20024;-59
2021/05/22 08:10:31;;;;;;;3.05;1.52;;;;;;;19.36;37.81;99646.66;4942309;29;20075;-58
2021/05/22 08:12:57;;;;;;;3.25;1.40;;;;;;;19.26;37.96;99648.13;4943636;29;20028;-58
2021/05/22 08:15:23;;;;;;;2.70;1.70;;;;;;;19.35;36.65;99642.34;4943515;29;20091;-57
2021/05/22 08:17:49;;;;;;;3.25;1.50;;;;;;;19.46;38.82;99639.94;4943567;29;20036;-58
2021/05/22 08:20:15;;;;;;;5.97;3.30;;;;;;;19.71;37.44;99643.75;4943324;29;20046;-58
2021/05/22 08:22:41;;;;;;;4.97;1.40;;;;;;;19.59;38.47;99636.56;4943511;29;20028;-59
2021/05/22 08:25:08;;;;;;;2.95;1.65;;;;;;;19.28;38.26;99633.13;4938005;29;20313;-59
2021/05/22 08:27:34;;;;;;;5.03;1.70;;;;;;;19.37;38.05;99635.22;4935282;29;20028;-58
2021/05/22 08:30:00;;;;;;;4.38;1.90;;;;;;;19.23;38.50;99645.69;4940587;29;20058;-59
2021/05/22 08:32:26;;;;;;;2.60;1.70;;;;;;;19.66;37.99;99640.53;4943610;28;20224;-60
2021/05/22 08:34:53;;;;;;;4.22;1.63;;;;;;;19.92;37.65;99635.50;4935709;29;20038;-59
2021/05/22 08:37:20;;;;;;;4.22;1.75;;;;;;;19.74;35.49;99646.19;4943432;29;20092;-60
2021/05/22 08:39:50;;;;;;;5.55;1.83;;;;;;;19.92;35.66;99625.00;4943354;29;20035;-58
2021/05/22 08:42:27;;;;;;;5.05;1.52;;;;;;;20.10;34.99;99641.44;4943371;29;20094;-59
2021/05/22 08:44:54;;;;;;;4.90;2.00;;;;;;;20.00;35.52;99633.25;4943397;29;20260;-59
2021/05/22 08:47:21;;;;;;;3.53;1.65;;;;;;;19.79;35.65;99638.03;4940416;29;20036;-59
2021/05/22 08:49:46;;;;;;;6.07;1.90;;;;;;;19.87;36.73;99638.44;4936990;29;20040;-58
2021/05/22 08:52:18;;;;;;;3.92;1.77;;;;;;;20.20;37.53;99641.72;4943442;29;20252;-58
2021/05/22 08:54:45;;;;;;;6.72;1.90;;;;;;;20.38;35.32;99640.56;4946502;29;20031;-58
2021/05/22 08:57:12;;;;;;;2.67;1.88;;;;;;;20.66;36.56;99644.03;4945315;29;20380;-58
2021/05/22 08:59:44;;;;;;;6.13;1.67;;;;;;;20.90;37.04;99635.56;4946181;29;20359;-60
2021/05/22 09:02:11;;;;;;;;;;;;;;;20.93;35.66;99637.97;4947154;29;20040;-59
2021/05/22 09:05:05;;;;;;;3.13;1.40;;;;;;;21.16;35.80;99642.59;4946579;29;19913;-58
2021/05/22 09:07:32;;;;;;;4.25;1.48;;;;;;;21.24;36.29;99635.97;4946402;29;20038;-59
2021/05/22 09:10:21;;;;;;;4.40;2.00;;;;;;;20.95;35.77;99596.59;4946711;29;20312;-57
2021/05/22 09:12:50;;;;;;;1.90;1.50;;;;;;;21.38;35.01;99639.34;4946609;29;20220;-59
2021/05/22 09:15:21;;;;;;;2.28;1.52;;;;;;;21.34;35.29;99605.41;4946606;29;20115;-58
2021/05/22 09:17:59;;;;;;;3.15;1.50;;;;;;;21.62;34.33;99643.09;4946368;29;20043;-58
2021/05/22 09:20:33;;;;;;;5.40;1.88;;;;;;;21.30;33.70;99577.59;4945199;29;20061;-57
2021/05/22 09:23:03;;;;;;;5.25;1.70;;;;;;;20.96;34.66;99579.84;4946388;29;20031;-58
2021/05/22 09:25:30;;;;;;;7.50;1.92;;;;;;;21.17;34.55;99638.16;4946288;29;20095;-59
2021/05/22 09:27:57;;;;;;;4.13;2.00;;;;;;;21.25;35.72;99624.47;4961149;29;20082;-59
2021/05/22 09:30:25;;;;;;;5.82;1.60;;;;;;;21.54;35.93;99639.19;4946162;29;20529;-58
2021/05/22 09:32:52;;;;;;;2.63;1.70;;;;;;;21.52;33.94;99638.44;4945213;29;20343;-59
2021/05/22 09:35:19;;;;;;;5.10;2.13;;;;;;;21.54;35.27;99633.06;4945835;29;20372;-58
2021/05/22 09:38:03;;;;;;;3.78;1.60;;;;;;;21.48;35.22;99638.75;4945904;29;20135;-59
2021/05/22 09:40:32;;;;;;;3.65;1.48;;;;;;;21.11;34.03;99599.91;4946108;29;20027;-57
2021/05/22 09:43:00;;;;;;;5.65;1.65;;;;;;;21.24;34.03;99618.34;4945791;29;20031;-58
2021/05/22 09:45:27;;;;;;;3.78;1.98;;;;;;;21.32;33.85;99633.63;4946234;29;20067;-60
2021/05/22 09:47:54;;;;;;;3.63;1.42;;;;;;;21.50;34.81;99640.31;4946015;29;20110;-59
2021/05/22 09:50:25;;;;;;;2.95;1.48;;;;;;;21.06;32.56;99578.28;4945698;29;20094;-57
2021/05/22 09:52:52;;;;;;;3.47;1.35;;;;;;;21.38;34.59;99633.25;4945442;29;20032;-58
2021/05/22 09:55:19;;;;;;;5.07;1.40;;;;;;;21.01;32.68;99626.00;4945525;28;20027;-58
2021/05/22 09:57:45;;;;;;;3.13;1.20;;;;;;;20.96;32.76;99621.97;4945492;29;20087;-58
2021/05/22 10:00:15;;;;;;;2.22;1.15;;;;;;;21.14;33.55;99618.13;4945248;29;20078;-58
2021/05/22 10:02:43;;;;;;;1.52;1.10;;;;;;;21.12;34.16;99630.56;4945169;29;20031;-58
2021/05/22 10:05:18;;;;;;;4.47;1.48;;;;;;;20.94;34.82;99631.78;4944221;29;20075;-58
2021/05/22 10:07:47;;;;;;;3.70;1.60;;;;;;;20.72;34.20;99582.31;4945019;29;20050;-58
2021/05/22 10:10:14;;;;;;;4.75;1.63;;;;;;;21.29;33.82;99647.00;4945199;29;20027;-57
2021/05/22 10:12:41;;;;;;;2.25;1.13;;;;;;;21.06;33.82;99636.22;4945489;29;20039;-57
2021/05/22 10:15:09;;;;;;;4.07;1.50;;;;;;;21.09;33.85;99633.41;4945458;29;20027;-57
2021/05/22 10:17:35;;;;;;;2.40;1.40;;;;;;;21.11;34.35;99639.41;4945221;29;20039;-58
2021/05/22 10:20:01;;;;;;;3.85;1.52;;;;;;;20.92;33.27;99641.53;4944888;29;20218;-58
2021/05/22 10:22:28;;;;;;;2.97;1.40;;;;;;;20.96;33.99;99648.31;4945229;29;20048;-58
2021/05/22 10:24:54;;;;;;;2.92;1.40;;;;;;;20.62;33.35;99656.56;4944829;29;20307;-59
2021/05/22 10:27:21;;;;;;;3.05;1.40;;;;;;;20.51;33.34;99644.09;4943839;29;20027;-59
2021/05/22 10:29:48;;;;;;;3.97;1.50;;;;;;;20.61;34.96;99638.25;4943972;29;20031;-59
2021/05/22 10:32:22;;;;;;;3.88;1.65;;;;;;;20.57;34.33;99586.75;4958051;28;20035;-58
2021/05/22 10:34:50;;;;;;;7.03;1.58;;;;;;;21.14;34.72;99638.34;4942319;29;20050;-58
2021/05/22 10:37:35;;;;;;;3.75;1.48;;;;;;;21.34;34.71;99635.22;4943642;28;20322;-57
2021/05/22 10:40:00;;;;;;;3.20;1.50;;;;;;;21.34;32.28;99627.31;4943900;29;20065;-59
2021/05/22 10:42:26;;;;;;;2.63;1.50;;;;;;;21.38;33.12;99628.81;4944728;28;20249;-58
2021/05/22 10:44:52;;;;;;;3.20;1.25;;;;;;;21.14;32.42;99638.34;4937105;29;20055;-58
2021/05/22 10:47:19;;;;;;;2.80;1.50;;;;;;;20.96;32.68;99637.78;4944725;29;20030;-58
2021/05/22 10:49:54;;;;;;;1.60;1.48;;;;;;;20.73;32.79;99653.28;4943518;29;20055;-59
2021/05/22 10:52:31;;;;;;;4.45;1.48;;;;;;;20.66;33.23;99658.06;4944523;29;20050;-58
2021/05/22 10:55:07;;;;;;;2.28;1.33;;;;;;;20.53;34.43;99647.44;4944640;29;20069;-58
2021/05/22 10:57:57;;;;;;;5.25;1.80;;;;;;;20.91;33.90;99643.34;4944207;29;20040;-57
2021/05/22 11:00:24;;;;;;;2.47;1.55;;;;;;;21.12;32.91;99643.72;4939937;29;20115;-58
2021/05/22 11:02:54;;;;;;;1.92;1.52;;;;;;;21.32;34.19;99654.72;4944434;29;20589;-58
2021/05/22 11:05:27;;;;;;;4.03;1.40;;;;;;;21.27;32.67;99652.38;4944702;29;20071;-58
2021/05/22 11:08:08;;;;;;;1.50;1.40;;;;;;;21.26;31.88;99645.44;4943005;29;20262;-58
2021/05/22 11:10:37;;;;;;;2.85;1.67;;;;;;;21.23;33.93;99645.63;4943818;29;20394;-59
2021/05/22 11:13:30;;;;;;;3.00;1.50;;;;;;;21.19;34.14;99607.28;4944114;29;20090;-58
2021/05/22 11:15:57;;;;;;;1.65;1.25;;;;;;;21.56;35.27;99639.06;4943079;29;20240;-57
2021/05/22 11:18:25;;;;;;;5.35;1.55;;;;;;;21.34;31.51;99643.13;4943594;29;20031;-58
2021/05/22 11:21:14;;;;;;;2.42;1.40;;;;;;;21.16;32.51;99639.94;4941224;29;20027;-58
2021/05/22 11:23:58;;;;;;;2.92;1.50;;;;;;;21.05;33.56;99639.81;4936022;29;20103;-58
2021/05/22 11:26:43;;;;;;;1.95;1.45;;;;;;;21.24;33.10;99630.69;4937464;29;20023;-58
2021/05/22 11:29:09;;;;;;;8.13;6.20;;;;;;;21.08;33.38;99620.31;4934580;29;20035;-58
2021/05/22 11:31:34;;;;;;;2.28;1.60;;;;;;;21.38;33.16;99633.25;4932837;29;20051;-57
2021/05/22 11:34:22;;;;;;;2.58;1.90;;;;;;;21.41;34.61;99635.66;4936857;29;20023;-57